Terminal Aerodrome Forecast
Issued by NWS

Current Version | Previous Version | Text Only | Print | Product List | Glossary On
Versions: 1 2 3 4 5 6 7 8 9 10 11 12 13 14 15 16 17 18 19 20 21 22 23 24
000
FTUS42 KGSP 192300
TAFAND
TAF
KAND 192336Z 2000/2024 07010KT P6SM OVC120
     FM200300 06006KT P6SM SCT024 BKN120
     FM200700 06006KT P6SM BKN017
     FM201400 05010KT P6SM BKN028
     FM201500 06011KT P6SM SCT040
     FM202000 06007KT P6SM FEW060=

USA.gov is the U.S. government's official web portal to all federal, state and local government web resources and services.